sensor_id;sensor_type;location;lat;lon;timestamp;temperature;humidity
37842;DHT22;23682;53.508;10.476;2022-09-09T00:04:26;15.30;99.90
37842;DHT22;23682;53.508;10.476;2022-09-09T00:09:28;15.30;99.90
37842;DHT22;23682;53.508;10.476;2022-09-09T00:12:15;15.30;99.90
37842;DHT22;23682;53.508;10.476;2022-09-09T00:17:37;15.30;99.90
37842;DHT22;23682;53.508;10.476;2022-09-09T00:20:27;15.30;99.90
37842;DHT22;23682;53.508;10.476;2022-09-09T00:23:29;15.30;99.90
37842;DHT22;23682;53.508;10.476;2022-09-09T00:26:02;15.20;99.90
37842;DHT22;23682;53.508;10.476;2022-09-09T00:28:33;15.20;99.90
37842;DHT22;23682;53.508;10.476;2022-09-09T00:31:15;15.20;99.90
37842;DHT22;23682;53.508;10.476;2022-09-09T00:33:46;15.20;99.90
37842;DHT22;23682;53.508;10.476;2022-09-09T00:36:17;15.30;99.90
37842;DHT22;23682;53.508;10.476;2022-09-09T00:38:51;15.30;99.90
37842;DHT22;23682;53.508;10.476;2022-09-09T00:43:57;15.20;99.90
37842;DHT22;23682;53.508;10.476;2022-09-09T00:55:03;15.30;99.90
37842;DHT22;23682;53.508;10.476;2022-09-09T00:57:34;15.30;99.90
37842;DHT22;23682;53.508;10.476;2022-09-09T01:00:19;15.30;99.90
37842;DHT22;23682;53.508;10.476;2022-09-09T01:03:06;15.40;99.90
37842;DHT22;23682;53.508;10.476;2022-09-09T01:11:24;15.30;99.90
37842;DHT22;23682;53.508;10.476;2022-09-09T01:16:47;15.30;99.90
37842;DHT22;23682;53.508;10.476;2022-09-09T01:19:27;15.20;99.90
37842;DHT22;23682;53.508;10.476;2022-09-09T01:22:22;15.10;99.90
37842;DHT22;23682;53.508;10.476;2022-09-09T01:28:19;15.20;99.90
37842;DHT22;23682;53.508;10.476;2022-09-09T01:30:49;15.20;99.90
37842;DHT22;23682;53.508;10.476;2022-09-09T01:33:22;15.20;99.90
37842;DHT22;23682;53.508;10.476;2022-09-09T01:38:18;15.20;99.90
37842;DHT22;23682;53.508;10.476;2022-09-09T01:40:47;15.20;99.90
37842;DHT22;23682;53.508;10.476;2022-09-09T01:43:15;15.20;99.90
37842;DHT22;23682;53.508;10.476;2022-09-09T01:45:42;15.20;99.90
37842;DHT22;23682;53.508;10.476;2022-09-09T01:48:10;15.10;99.90
37842;DHT22;23682;53.508;10.476;2022-09-09T01:50:43;15.10;99.90
37842;DHT22;23682;53.508;10.476;2022-09-09T01:53:11;15.10;99.90
37842;DHT22;23682;53.508;10.476;2022-09-09T01:55:43;15.10;99.90
37842;DHT22;23682;53.508;10.476;2022-09-09T01:58:43;15.00;99.90
37842;DHT22;23682;53.508;10.476;2022-09-09T02:01:23;15.00;99.90
37842;DHT22;23682;53.508;10.476;2022-09-09T02:03:56;15.00;99.90
37842;DHT22;23682;53.508;10.476;2022-09-09T02:08:56;15.00;99.90
37842;DHT22;23682;53.508;10.476;2022-09-09T02:11:27;14.90;99.90
37842;DHT22;23682;53.508;10.476;2022-09-09T02:14:12;14.90;99.90
37842;DHT22;23682;53.508;10.476;2022-09-09T02:16:59;14.90;99.90
37842;DHT22;23682;53.508;10.476;2022-09-09T02:19:55;14.90;99.90
37842;DHT22;23682;53.508;10.476;2022-09-09T02:22:37;15.00;99.90
37842;DHT22;23682;53.508;10.476;2022-09-09T02:25:08;15.00;99.90
37842;DHT22;23682;53.508;10.476;2022-09-09T02:27:37;15.00;99.90
37842;DHT22;23682;53.508;10.476;2022-09-09T02:30:04;15.00;99.90
37842;DHT22;23682;53.508;10.476;2022-09-09T02:32:40;15.00;99.90
37842;DHT22;23682;53.508;10.476;2022-09-09T02:35:13;15.00;99.90
37842;DHT22;23682;53.508;10.476;2022-09-09T02:37:44;14.90;99.90
37842;DHT22;23682;53.508;10.476;2022-09-09T02:40:14;14.90;99.90
37842;DHT22;23682;53.508;10.476;2022-09-09T02:42:49;14.90;99.90
37842;DHT22;23682;53.508;10.476;2022-09-09T02:45:20;14.90;99.90
37842;DHT22;23682;53.508;10.476;2022-09-09T02:50:34;14.90;99.90
37842;DHT22;23682;53.508;10.476;2022-09-09T02:53:17;15.00;99.90
37842;DHT22;23682;53.508;10.476;2022-09-09T02:56:04;15.00;99.90
37842;DHT22;23682;53.508;10.476;2022-09-09T02:58:35;14.90;99.90
37842;DHT22;23682;53.508;10.476;2022-09-09T03:01:05;14.90;99.90
37842;DHT22;23682;53.508;10.476;2022-09-09T03:03:32;14.90;99.90
37842;DHT22;23682;53.508;10.476;2022-09-09T03:06:04;14.90;99.90
37842;DHT22;23682;53.508;10.476;2022-09-09T03:08:32;14.90;99.90
37842;DHT22;23682;53.508;10.476;2022-09-09T03:11:00;14.90;99.90
37842;DHT22;23682;53.508;10.476;2022-09-09T03:13:30;14.90;99.90
37842;DHT22;23682;53.508;10.476;2022-09-09T03:15:57;14.90;99.90
37842;DHT22;23682;53.508;10.476;2022-09-09T03:18:25;14.90;99.90
37842;DHT22;23682;53.508;10.476;2022-09-09T03:20:53;14.90;99.90
37842;DHT22;23682;53.508;10.476;2022-09-09T03:23:21;14.90;99.90
37842;DHT22;23682;53.508;10.476;2022-09-09T03:25:49;14.80;99.90
37842;DHT22;23682;53.508;10.476;2022-09-09T03:28:21;14.80;99.90
37842;DHT22;23682;53.508;10.476;2022-09-09T03:30:49;14.70;99.90
37842;DHT22;23682;53.508;10.476;2022-09-09T03:33:17;14.70;99.90
37842;DHT22;23682;53.508;10.476;2022-09-09T03:35:46;14.70;99.90
37842;DHT22;23682;53.508;10.476;2022-09-09T03:38:17;14.70;99.90
37842;DHT22;23682;53.508;10.476;2022-09-09T03:40:54;14.70;99.90
37842;DHT22;23682;53.508;10.476;2022-09-09T03:43:23;14.60;99.90
37842;DHT22;23682;53.508;10.476;2022-09-09T03:45:51;14.60;99.90
37842;DHT22;23682;53.508;10.476;2022-09-09T03:48:19;14.60;99.90
37842;DHT22;23682;53.508;10.476;2022-09-09T03:50:48;14.60;99.90
37842;DHT22;23682;53.508;10.476;2022-09-09T03:53:16;14.50;99.90
37842;DHT22;23682;53.508;10.476;2022-09-09T03:55:46;14.50;99.90
37842;DHT22;23682;53.508;10.476;2022-09-09T03:58:14;14.50;99.90
37842;DHT22;23682;53.508;10.476;2022-09-09T04:00:42;14.40;99.90
37842;DHT22;23682;53.508;10.476;2022-09-09T04:03:11;14.40;99.90
37842;DHT22;23682;53.508;10.476;2022-09-09T04:05:41;14.40;99.90
37842;DHT22;23682;53.508;10.476;2022-09-09T04:08:09;14.40;99.90
37842;DHT22;23682;53.508;10.476;2022-09-09T04:10:36;14.40;99.90
37842;DHT22;23682;53.508;10.476;2022-09-09T04:13:04;14.40;99.90
37842;DHT22;23682;53.508;10.476;2022-09-09T04:15:32;14.40;99.90
37842;DHT22;23682;53.508;10.476;2022-09-09T04:18:00;14.30;99.90
37842;DHT22;23682;53.508;10.476;2022-09-09T04:20:27;14.30;99.90
37842;DHT22;23682;53.508;10.476;2022-09-09T04:22:54;14.30;99.90
37842;DHT22;23682;53.508;10.476;2022-09-09T04:25:21;14.30;99.90
37842;DHT22;23682;53.508;10.476;2022-09-09T04:27:53;14.20;99.90
37842;DHT22;23682;53.508;10.476;2022-09-09T04:30:22;14.20;99.90
37842;DHT22;23682;53.508;10.476;2022-09-09T04:32:49;14.20;99.90
37842;DHT22;23682;53.508;10.476;2022-09-09T04:35:16;14.20;99.90
37842;DHT22;23682;53.508;10.476;2022-09-09T04:37:43;14.30;99.90
37842;DHT22;23682;53.508;10.476;2022-09-09T04:40:11;14.30;99.90
37842;DHT22;23682;53.508;10.476;2022-09-09T04:42:39;14.30;99.90
37842;DHT22;23682;53.508;10.476;2022-09-09T04:45:06;14.30;99.90
37842;DHT22;23682;53.508;10.476;2022-09-09T04:47:33;14.30;99.90
37842;DHT22;23682;53.508;10.476;2022-09-09T04:50:01;14.40;99.90
37842;DHT22;23682;53.508;10.476;2022-09-09T04:52:28;14.40;99.90
37842;DHT22;23682;53.508;10.476;2022-09-09T04:54:55;14.40;99.90
37842;DHT22;23682;53.508;10.476;2022-09-09T04:57:22;14.50;99.90
37842;DHT22;23682;53.508;10.476;2022-09-09T04:59:49;14.50;99.90
37842;DHT22;23682;53.508;10.476;2022-09-09T05:02:16;14.50;99.90
37842;DHT22;23682;53.508;10.476;2022-09-09T05:04:43;14.50;99.90
37842;DHT22;23682;53.508;10.476;2022-09-09T05:07:10;14.50;99.90
37842;DHT22;23682;53.508;10.476;2022-09-09T05:09:38;14.60;99.90
37842;DHT22;23682;53.508;10.476;2022-09-09T05:12:06;14.60;99.90
37842;DHT22;23682;53.508;10.476;2022-09-09T05:14:35;14.60;99.90
37842;DHT22;23682;53.508;10.476;2022-09-09T05:17:06;14.60;99.90
37842;DHT22;23682;53.508;10.476;2022-09-09T05:19:35;14.70;99.90
37842;DHT22;23682;53.508;10.476;2022-09-09T05:22:02;14.70;99.90
37842;DHT22;23682;53.508;10.476;2022-09-09T05:24:37;14.80;99.90
37842;DHT22;23682;53.508;10.476;2022-09-09T05:27:05;14.80;99.90
37842;DHT22;23682;53.508;10.476;2022-09-09T05:29:33;14.80;99.90
37842;DHT22;23682;53.508;10.476;2022-09-09T05:32:04;14.80;99.90
37842;DHT22;23682;53.508;10.476;2022-09-09T05:34:33;14.80;99.90
37842;DHT22;23682;53.508;10.476;2022-09-09T05:37:01;14.80;99.90
37842;DHT22;23682;53.508;10.476;2022-09-09T05:39:28;14.80;99.90
37842;DHT22;23682;53.508;10.476;2022-09-09T05:41:55;14.90;99.90
37842;DHT22;23682;53.508;10.476;2022-09-09T05:44:22;14.90;99.90
37842;DHT22;23682;53.508;10.476;2022-09-09T05:46:54;14.90;99.90
37842;DHT22;23682;53.508;10.476;2022-09-09T05:49:21;15.00;99.90
37842;DHT22;23682;53.508;10.476;2022-09-09T05:51:48;15.00;99.90
37842;DHT22;23682;53.508;10.476;2022-09-09T05:54:18;15.10;99.90
37842;DHT22;23682;53.508;10.476;2022-09-09T05:56:48;15.10;99.90
37842;DHT22;23682;53.508;10.476;2022-09-09T05:59:18;15.10;99.90
37842;DHT22;23682;53.508;10.476;2022-09-09T06:01:45;15.20;99.90
37842;DHT22;23682;53.508;10.476;2022-09-09T06:04:19;15.20;99.90
37842;DHT22;23682;53.508;10.476;2022-09-09T06:06:50;15.20;99.90
37842;DHT22;23682;53.508;10.476;2022-09-09T06:09:20;15.30;99.90
37842;DHT22;23682;53.508;10.476;2022-09-09T06:11:47;15.40;99.90
37842;DHT22;23682;53.508;10.476;2022-09-09T06:14:14;15.60;99.90
37842;DHT22;23682;53.508;10.476;2022-09-09T06:16:45;15.80;99.90
37842;DHT22;23682;53.508;10.476;2022-09-09T06:19:18;15.90;99.90
37842;DHT22;23682;53.508;10.476;2022-09-09T06:21:46;16.00;99.90
37842;DHT22;23682;53.508;10.476;2022-09-09T06:24:15;16.20;99.90
37842;DHT22;23682;53.508;10.476;2022-09-09T06:26:43;16.30;99.90
37842;DHT22;23682;53.508;10.476;2022-09-09T06:29:17;16.30;99.90
37842;DHT22;23682;53.508;10.476;2022-09-09T06:31:45;16.20;99.90
37842;DHT22;23682;53.508;10.476;2022-09-09T06:34:15;16.30;99.90
37842;DHT22;23682;53.508;10.476;2022-09-09T06:36:46;16.20;99.90
37842;DHT22;23682;53.508;10.476;2022-09-09T06:39:13;16.10;99.90
37842;DHT22;23682;53.508;10.476;2022-09-09T06:41:42;16.10;99.90
37842;DHT22;23682;53.508;10.476;2022-09-09T06:44:28;16.10;99.90
37842;DHT22;23682;53.508;10.476;2022-09-09T06:47:01;16.10;99.90
37842;DHT22;23682;53.508;10.476;2022-09-09T06:49:29;16.20;99.90
37842;DHT22;23682;53.508;10.476;2022-09-09T06:51:56;16.20;99.90
37842;DHT22;23682;53.508;10.476;2022-09-09T06:54:24;16.30;99.90
37842;DHT22;23682;53.508;10.476;2022-09-09T06:56:52;16.30;99.90
37842;DHT22;23682;53.508;10.476;2022-09-09T06:59:22;16.40;99.90
37842;DHT22;23682;53.508;10.476;2022-09-09T07:01:52;16.50;99.90
37842;DHT22;23682;53.508;10.476;2022-09-09T07:04:22;16.50;99.90
37842;DHT22;23682;53.508;10.476;2022-09-09T07:06:50;16.60;99.90
37842;DHT22;23682;53.508;10.476;2022-09-09T07:09:23;16.60;99.90
37842;DHT22;23682;53.508;10.476;2022-09-09T07:11:52;16.60;99.90
37842;DHT22;23682;53.508;10.476;2022-09-09T07:14:22;16.60;99.90
37842;DHT22;23682;53.508;10.476;2022-09-09T07:17:09;16.60;99.90
37842;DHT22;23682;53.508;10.476;2022-09-09T07:19:39;16.60;99.90
37842;DHT22;23682;53.508;10.476;2022-09-09T07:22:06;16.50;99.90
37842;DHT22;23682;53.508;10.476;2022-09-09T07:24:34;16.50;99.90
37842;DHT22;23682;53.508;10.476;2022-09-09T07:27:01;16.50;99.90
37842;DHT22;23682;53.508;10.476;2022-09-09T07:29:30;16.50;99.90
37842;DHT22;23682;53.508;10.476;2022-09-09T07:31:57;16.50;99.90
37842;DHT22;23682;53.508;10.476;2022-09-09T07:34:31;16.50;99.90
37842;DHT22;23682;53.508;10.476;2022-09-09T07:36:58;16.50;99.90
37842;DHT22;23682;53.508;10.476;2022-09-09T07:39:25;16.50;99.90
37842;DHT22;23682;53.508;10.476;2022-09-09T07:41:53;16.50;99.90
37842;DHT22;23682;53.508;10.476;2022-09-09T07:44:24;16.60;99.90
37842;DHT22;23682;53.508;10.476;2022-09-09T07:47:02;16.60;99.90
37842;DHT22;23682;53.508;10.476;2022-09-09T07:49:49;16.60;99.90
37842;DHT22;23682;53.508;10.476;2022-09-09T07:52:23;16.70;99.90
37842;DHT22;23682;53.508;10.476;2022-09-09T07:54:54;16.70;99.90
37842;DHT22;23682;53.508;10.476;2022-09-09T07:57:23;16.60;99.90
37842;DHT22;23682;53.508;10.476;2022-09-09T07:59:51;16.60;99.90
37842;DHT22;23682;53.508;10.476;2022-09-09T08:02:19;16.60;99.90
37842;DHT22;23682;53.508;10.476;2022-09-09T08:04:46;16.80;99.90
37842;DHT22;23682;53.508;10.476;2022-09-09T08:07:15;17.00;99.90
37842;DHT22;23682;53.508;10.476;2022-09-09T08:09:48;16.90;99.90
37842;DHT22;23682;53.508;10.476;2022-09-09T08:12:21;16.90;99.90
37842;DHT22;23682;53.508;10.476;2022-09-09T08:14:48;16.90;99.90
37842;DHT22;23682;53.508;10.476;2022-09-09T08:17:15;16.90;99.90
37842;DHT22;23682;53.508;10.476;2022-09-09T08:19:43;16.80;99.90
37842;DHT22;23682;53.508;10.476;2022-09-09T08:22:17;16.90;99.90
37842;DHT22;23682;53.508;10.476;2022-09-09T08:24:44;16.90;99.90
37842;DHT22;23682;53.508;10.476;2022-09-09T08:27:11;17.00;99.90
37842;DHT22;23682;53.508;10.476;2022-09-09T08:29:39;17.00;99.90
37842;DHT22;23682;53.508;10.476;2022-09-09T08:32:06;17.10;99.90
37842;DHT22;23682;53.508;10.476;2022-09-09T08:34:34;17.10;99.90
37842;DHT22;23682;53.508;10.476;2022-09-09T08:37:10;17.20;99.90
37842;DHT22;23682;53.508;10.476;2022-09-09T08:39:39;17.20;99.90
37842;DHT22;23682;53.508;10.476;2022-09-09T08:42:13;17.20;99.90
37842;DHT22;23682;53.508;10.476;2022-09-09T08:47:25;17.40;99.90
37842;DHT22;23682;53.508;10.476;2022-09-09T08:50:13;17.40;99.90
37842;DHT22;23682;53.508;10.476;2022-09-09T08:53:04;17.40;99.90
37842;DHT22;23682;53.508;10.476;2022-09-09T08:55:46;17.50;99.90
37842;DHT22;23682;53.508;10.476;2022-09-09T08:58:20;17.40;99.90
37842;DHT22;23682;53.508;10.476;2022-09-09T09:06:34;17.70;99.90
37842;DHT22;23682;53.508;10.476;2022-09-09T09:09:08;17.80;99.90
37842;DHT22;23682;53.508;10.476;2022-09-09T09:11:40;17.80;99.90
37842;DHT22;23682;53.508;10.476;2022-09-09T09:14:17;17.80;99.90
37842;DHT22;23682;53.508;10.476;2022-09-09T09:16:53;17.90;99.90
37842;DHT22;23682;53.508;10.476;2022-09-09T09:19:21;17.90;99.90
37842;DHT22;23682;53.508;10.476;2022-09-09T09:22:10;17.90;99.90
37842;DHT22;23682;53.508;10.476;2022-09-09T09:24:53;17.80;99.90
37842;DHT22;23682;53.508;10.476;2022-09-09T09:27:40;17.90;99.90
37842;DHT22;23682;53.508;10.476;2022-09-09T09:30:17;17.90;99.90
37842;DHT22;23682;53.508;10.476;2022-09-09T09:33:05;18.00;99.90
37842;DHT22;23682;53.508;10.476;2022-09-09T09:35:35;18.30;99.90
37842;DHT22;23682;53.508;10.476;2022-09-09T09:38:27;18.40;99.90
37842;DHT22;23682;53.508;10.476;2022-09-09T09:41:15;18.60;99.90
37842;DHT22;23682;53.508;10.476;2022-09-09T09:43:42;18.80;99.90
37842;DHT22;23682;53.508;10.476;2022-09-09T09:46:22;18.90;99.90
37842;DHT22;23682;53.508;10.476;2022-09-09T09:49:04;19.10;99.90
37842;DHT22;23682;53.508;10.476;2022-09-09T09:51:34;19.30;99.90
37842;DHT22;23682;53.508;10.476;2022-09-09T09:56:46;19.40;99.90
37842;DHT22;23682;53.508;10.476;2022-09-09T09:59:36;19.50;99.90
37842;DHT22;23682;53.508;10.476;2022-09-09T10:02:13;19.40;99.90
37842;DHT22;23682;53.508;10.476;2022-09-09T10:04:41;19.40;99.90
37842;DHT22;23682;53.508;10.476;2022-09-09T10:07:15;19.40;99.90
37842;DHT22;23682;53.508;10.476;2022-09-09T10:09:43;19.50;99.90
37842;DHT22;23682;53.508;10.476;2022-09-09T10:12:31;19.50;99.90
37842;DHT22;23682;53.508;10.476;2022-09-09T10:17:57;19.40;99.90
37842;DHT22;23682;53.508;10.476;2022-09-09T10:20:37;19.30;99.90
37842;DHT22;23682;53.508;10.476;2022-09-09T10:28:39;19.30;99.90
37842;DHT22;23682;53.508;10.476;2022-09-09T10:31:24;19.30;99.90
37842;DHT22;23682;53.508;10.476;2022-09-09T10:34:03;19.40;99.90
37842;DHT22;23682;53.508;10.476;2022-09-09T10:36:46;19.40;99.90
37842;DHT22;23682;53.508;10.476;2022-09-09T10:42:08;19.10;99.90
37842;DHT22;23682;53.508;10.476;2022-09-09T10:47:42;19.10;99.90
37842;DHT22;23682;53.508;10.476;2022-09-09T10:50:35;19.10;99.90
37842;DHT22;23682;53.508;10.476;2022-09-09T10:56:26;19.00;99.90
37842;DHT22;23682;53.508;10.476;2022-09-09T10:59:04;18.90;99.90
37842;DHT22;23682;53.508;10.476;2022-09-09T11:01:47;18.90;99.90
37842;DHT22;23682;53.508;10.476;2022-09-09T11:06:54;18.90;99.90
37842;DHT22;23682;53.508;10.476;2022-09-09T11:09:28;18.90;99.90
37842;DHT22;23682;53.508;10.476;2022-09-09T11:11:59;18.90;99.90
37842;DHT22;23682;53.508;10.476;2022-09-09T11:17:13;19.00;99.90
37842;DHT22;23682;53.508;10.476;2022-09-09T11:19:42;19.20;99.90
37842;DHT22;23682;53.508;10.476;2022-09-09T11:27:27;19.50;99.90
37842;DHT22;23682;53.508;10.476;2022-09-09T11:30:34;19.60;99.90
37842;DHT22;23682;53.508;10.476;2022-09-09T11:39:05;19.80;99.90
37842;DHT22;23682;53.508;10.476;2022-09-09T11:41:38;19.80;99.90
37842;DHT22;23682;53.508;10.476;2022-09-09T11:44:12;19.70;99.90
37842;DHT22;23682;53.508;10.476;2022-09-09T11:46:46;19.80;99.90
37842;DHT22;23682;53.508;10.476;2022-09-09T11:49:29;19.80;99.90
37842;DHT22;23682;53.508;10.476;2022-09-09T11:52:36;20.00;99.90
37842;DHT22;23682;53.508;10.476;2022-09-09T11:55:37;20.00;99.90
37842;DHT22;23682;53.508;10.476;2022-09-09T12:00:43;20.20;99.90
37842;DHT22;23682;53.508;10.476;2022-09-09T12:03:47;20.30;99.90
37842;DHT22;23682;53.508;10.476;2022-09-09T12:08:48;20.50;99.90
37842;DHT22;23682;53.508;10.476;2022-09-09T12:11:28;20.30;99.90
37842;DHT22;23682;53.508;10.476;2022-09-09T12:13:57;20.20;99.90
37842;DHT22;23682;53.508;10.476;2022-09-09T12:16:33;20.00;99.90
37842;DHT22;23682;53.508;10.476;2022-09-09T12:19:27;19.90;99.90
37842;DHT22;23682;53.508;10.476;2022-09-09T12:22:01;19.90;99.90
37842;DHT22;23682;53.508;10.476;2022-09-09T12:30:16;19.80;99.90
37842;DHT22;23682;53.508;10.476;2022-09-09T12:32:43;19.60;99.90
37842;DHT22;23682;53.508;10.476;2022-09-09T12:35:20;19.50;99.90
37842;DHT22;23682;53.508;10.476;2022-09-09T12:37:55;19.40;99.90
37842;DHT22;23682;53.508;10.476;2022-09-09T12:40:25;19.40;99.90
37842;DHT22;23682;53.508;10.476;2022-09-09T12:42:52;19.40;99.90
37842;DHT22;23682;53.508;10.476;2022-09-09T12:45:30;19.40;99.90
37842;DHT22;23682;53.508;10.476;2022-09-09T12:48:00;19.30;99.90
37842;DHT22;23682;53.508;10.476;2022-09-09T12:50:33;19.10;99.90
37842;DHT22;23682;53.508;10.476;2022-09-09T12:53:31;19.00;99.90
37842;DHT22;23682;53.508;10.476;2022-09-09T12:56:07;18.90;99.90
37842;DHT22;23682;53.508;10.476;2022-09-09T12:58:37;19.00;99.90
37842;DHT22;23682;53.508;10.476;2022-09-09T13:01:05;19.00;99.90
37842;DHT22;23682;53.508;10.476;2022-09-09T13:03:33;19.00;99.90
37842;DHT22;23682;53.508;10.476;2022-09-09T13:06:18;19.00;99.90
37842;DHT22;23682;53.508;10.476;2022-09-09T13:08:46;19.10;99.90
37842;DHT22;23682;53.508;10.476;2022-09-09T13:11:17;19.20;99.90
37842;DHT22;23682;53.508;10.476;2022-09-09T13:13:52;19.30;99.90
37842;DHT22;23682;53.508;10.476;2022-09-09T13:16:28;19.30;99.90
37842;DHT22;23682;53.508;10.476;2022-09-09T13:19:02;19.30;99.90
37842;DHT22;23682;53.508;10.476;2022-09-09T13:21:38;19.40;99.90
37842;DHT22;23682;53.508;10.476;2022-09-09T13:24:30;19.50;99.90
37842;DHT22;23682;53.508;10.476;2022-09-09T13:27:05;19.50;99.90
37842;DHT22;23682;53.508;10.476;2022-09-09T13:29:56;19.50;99.90
37842;DHT22;23682;53.508;10.476;2022-09-09T13:32:25;19.50;99.90
37842;DHT22;23682;53.508;10.476;2022-09-09T13:35:01;19.50;99.90
37842;DHT22;23682;53.508;10.476;2022-09-09T13:37:35;19.50;99.90
37842;DHT22;23682;53.508;10.476;2022-09-09T13:40:06;19.50;99.90
37842;DHT22;23682;53.508;10.476;2022-09-09T13:42:42;19.50;99.90
37842;DHT22;23682;53.508;10.476;2022-09-09T13:45:18;19.50;99.90
37842;DHT22;23682;53.508;10.476;2022-09-09T13:47:47;19.40;99.90
37842;DHT22;23682;53.508;10.476;2022-09-09T13:50:26;19.40;99.90
37842;DHT22;23682;53.508;10.476;2022-09-09T13:52:55;19.40;99.90
37842;DHT22;23682;53.508;10.476;2022-09-09T13:55:28;19.30;99.90
37842;DHT22;23682;53.508;10.476;2022-09-09T13:58:01;19.30;99.90
37842;DHT22;23682;53.508;10.476;2022-09-09T14:00:34;19.30;99.90
37842;DHT22;23682;53.508;10.476;2022-09-09T14:03:01;19.40;99.90
37842;DHT22;23682;53.508;10.476;2022-09-09T14:05:31;19.50;99.90
37842;DHT22;23682;53.508;10.476;2022-09-09T14:07:59;19.70;99.90
37842;DHT22;23682;53.508;10.476;2022-09-09T14:10:27;19.80;99.90
37842;DHT22;23682;53.508;10.476;2022-09-09T14:12:54;19.90;99.90
37842;DHT22;23682;53.508;10.476;2022-09-09T14:15:20;19.90;99.90
37842;DHT22;23682;53.508;10.476;2022-09-09T14:17:48;19.90;99.90
37842;DHT22;23682;53.508;10.476;2022-09-09T14:20:15;19.90;99.90
37842;DHT22;23682;53.508;10.476;2022-09-09T14:22:44;19.90;99.90
37842;DHT22;23682;53.508;10.476;2022-09-09T14:25:11;19.80;99.90
37842;DHT22;23682;53.508;10.476;2022-09-09T14:27:40;19.90;99.90
37842;DHT22;23682;53.508;10.476;2022-09-09T14:30:07;19.80;99.90
37842;DHT22;23682;53.508;10.476;2022-09-09T14:32:34;19.70;99.90
37842;DHT22;23682;53.508;10.476;2022-09-09T14:35:01;19.70;99.90
37842;DHT22;23682;53.508;10.476;2022-09-09T14:37:28;19.70;99.90
37842;DHT22;23682;53.508;10.476;2022-09-09T14:39:54;19.70;99.90
37842;DHT22;23682;53.508;10.476;2022-09-09T14:42:21;19.50;99.90
37842;DHT22;23682;53.508;10.476;2022-09-09T14:44:48;19.30;99.90
37842;DHT22;23682;53.508;10.476;2022-09-09T14:47:15;19.20;99.90
37842;DHT22;23682;53.508;10.476;2022-09-09T14:49:42;19.00;99.90
37842;DHT22;23682;53.508;10.476;2022-09-09T14:52:12;18.90;99.90
37842;DHT22;23682;53.508;10.476;2022-09-09T14:54:39;18.80;99.90
37842;DHT22;23682;53.508;10.476;2022-09-09T14:57:06;18.70;99.90
37842;DHT22;23682;53.508;10.476;2022-09-09T14:59:33;18.50;99.90
37842;DHT22;23682;53.508;10.476;2022-09-09T15:02:01;18.40;99.90
37842;DHT22;23682;53.508;10.476;2022-09-09T15:04:31;18.30;99.90
37842;DHT22;23682;53.508;10.476;2022-09-09T15:06:57;18.20;99.90
37842;DHT22;23682;53.508;10.476;2022-09-09T15:09:25;18.20;99.90
37842;DHT22;23682;53.508;10.476;2022-09-09T15:11:52;18.10;99.90
37842;DHT22;23682;53.508;10.476;2022-09-09T15:14:18;18.10;99.90
37842;DHT22;23682;53.508;10.476;2022-09-09T15:16:51;18.00;99.90
37842;DHT22;23682;53.508;10.476;2022-09-09T15:19:18;17.90;99.90
37842;DHT22;23682;53.508;10.476;2022-09-09T15:21:45;17.90;99.90
37842;DHT22;23682;53.508;10.476;2022-09-09T15:24:11;17.90;99.90
37842;DHT22;23682;53.508;10.476;2022-09-09T15:26:40;17.90;99.90
37842;DHT22;23682;53.508;10.476;2022-09-09T15:29:07;17.90;99.90
37842;DHT22;23682;53.508;10.476;2022-09-09T15:31:35;17.90;99.90
37842;DHT22;23682;53.508;10.476;2022-09-09T15:34:05;17.80;99.90
37842;DHT22;23682;53.508;10.476;2022-09-09T15:36:38;17.80;99.90
37842;DHT22;23682;53.508;10.476;2022-09-09T15:39:07;17.60;99.90
37842;DHT22;23682;53.508;10.476;2022-09-09T15:41:35;17.60;99.90
37842;DHT22;23682;53.508;10.476;2022-09-09T15:44:02;17.60;99.90
37842;DHT22;23682;53.508;10.476;2022-09-09T15:49:12;17.50;99.90
37842;DHT22;23682;53.508;10.476;2022-09-09T15:51:45;17.40;99.90
37842;DHT22;23682;53.508;10.476;2022-09-09T15:54:17;17.40;99.90
37842;DHT22;23682;53.508;10.476;2022-09-09T15:56:46;17.40;99.90
37842;DHT22;23682;53.508;10.476;2022-09-09T15:59:15;17.40;99.90
37842;DHT22;23682;53.508;10.476;2022-09-09T16:01:43;17.40;99.90
37842;DHT22;23682;53.508;10.476;2022-09-09T16:04:11;17.30;99.90
37842;DHT22;23682;53.508;10.476;2022-09-09T16:06:38;17.40;99.90
37842;DHT22;23682;53.508;10.476;2022-09-09T16:09:07;17.40;99.90
37842;DHT22;23682;53.508;10.476;2022-09-09T16:11:36;17.40;99.90
37842;DHT22;23682;53.508;10.476;2022-09-09T16:14:04;17.50;99.90
37842;DHT22;23682;53.508;10.476;2022-09-09T16:16:32;17.40;99.90
37842;DHT22;23682;53.508;10.476;2022-09-09T16:19:02;17.30;99.90
37842;DHT22;23682;53.508;10.476;2022-09-09T16:21:34;17.30;99.90
37842;DHT22;23682;53.508;10.476;2022-09-09T16:24:11;17.30;99.90
37842;DHT22;23682;53.508;10.476;2022-09-09T16:26:41;17.30;99.90
37842;DHT22;23682;53.508;10.476;2022-09-09T16:29:15;17.30;99.90
37842;DHT22;23682;53.508;10.476;2022-09-09T16:31:42;17.30;99.90
37842;DHT22;23682;53.508;10.476;2022-09-09T16:34:10;17.20;99.90
37842;DHT22;23682;53.508;10.476;2022-09-09T16:36:38;17.20;99.90
37842;DHT22;23682;53.508;10.476;2022-09-09T16:39:11;17.20;99.90
37842;DHT22;23682;53.508;10.476;2022-09-09T16:41:39;17.20;99.90
37842;DHT22;23682;53.508;10.476;2022-09-09T16:44:09;17.20;99.90
37842;DHT22;23682;53.508;10.476;2022-09-09T16:46:38;17.30;99.90
37842;DHT22;23682;53.508;10.476;2022-09-09T16:49:10;17.20;99.90
37842;DHT22;23682;53.508;10.476;2022-09-09T16:51:39;17.20;99.90
37842;DHT22;23682;53.508;10.476;2022-09-09T16:54:08;17.30;99.90
37842;DHT22;23682;53.508;10.476;2022-09-09T16:56:38;17.30;99.90
37842;DHT22;23682;53.508;10.476;2022-09-09T16:59:07;17.30;99.90
37842;DHT22;23682;53.508;10.476;2022-09-09T17:01:37;17.30;99.90
37842;DHT22;23682;53.508;10.476;2022-09-09T17:04:06;17.30;99.90
37842;DHT22;23682;53.508;10.476;2022-09-09T17:06:34;17.30;99.90
37842;DHT22;23682;53.508;10.476;2022-09-09T17:09:04;17.20;99.90
37842;DHT22;23682;53.508;10.476;2022-09-09T17:11:32;17.20;99.90
37842;DHT22;23682;53.508;10.476;2022-09-09T17:13:59;17.20;99.90
37842;DHT22;23682;53.508;10.476;2022-09-09T17:16:29;17.20;99.90
37842;DHT22;23682;53.508;10.476;2022-09-09T17:18:57;17.20;99.90
37842;DHT22;23682;53.508;10.476;2022-09-09T17:21:28;17.20;99.90
37842;DHT22;23682;53.508;10.476;2022-09-09T17:23:56;17.10;99.90